sensor_id;sensor_type;location;lat;lon;timestamp;temperature;humidity
3614;DHT22;1821;50.936;6.854;2023-01-16T00:00:24;7.70;99.90
3614;DHT22;1821;50.936;6.854;2023-01-16T00:01:06;6.90;99.90
3614;DHT22;1821;50.936;6.854;2023-01-16T00:01:49;7.00;99.90
3614;DHT22;1821;50.936;6.854;2023-01-16T00:02:33;6.70;99.90
3614;DHT22;1821;50.936;6.854;2023-01-16T00:03:15;7.10;99.90
3614;DHT22;1821;50.936;6.854;2023-01-16T00:03:57;7.00;99.90
3614;DHT22;1821;50.936;6.854;2023-01-16T00:04:39;7.00;99.90
3614;DHT22;1821;50.936;6.854;2023-01-16T00:05:21;7.00;99.90
3614;DHT22;1821;50.936;6.854;2023-01-16T00:06:02;6.90;99.90
3614;DHT22;1821;50.936;6.854;2023-01-16T00:06:44;6.80;99.90
3614;DHT22;1821;50.936;6.854;2023-01-16T00:07:28;6.70;99.90
3614;DHT22;1821;50.936;6.854;2023-01-16T00:08:11;7.00;99.90
3614;DHT22;1821;50.936;6.854;2023-01-16T00:08:53;7.00;99.90
3614;DHT22;1821;50.936;6.854;2023-01-16T00:09:34;6.70;99.90
3614;DHT22;1821;50.936;6.854;2023-01-16T00:10:18;6.40;99.90
3614;DHT22;1821;50.936;6.854;2023-01-16T00:11:00;7.60;99.90
3614;DHT22;1821;50.936;6.854;2023-01-16T00:11:42;7.50;99.90
3614;DHT22;1821;50.936;6.854;2023-01-16T00:12:24;7.50;99.90
3614;DHT22;1821;50.936;6.854;2023-01-16T00:13:06;6.70;99.90
3614;DHT22;1821;50.936;6.854;2023-01-16T00:13:47;6.90;99.90
3614;DHT22;1821;50.936;6.854;2023-01-16T00:14:29;6.70;99.90
3614;DHT22;1821;50.936;6.854;2023-01-16T00:15:12;7.10;99.90
3614;DHT22;1821;50.936;6.854;2023-01-16T00:15:54;6.40;99.90
3614;DHT22;1821;50.936;6.854;2023-01-16T00:16:36;6.50;99.90
3614;DHT22;1821;50.936;6.854;2023-01-16T00:17:18;6.40;99.90
3614;DHT22;1821;50.936;6.854;2023-01-16T00:17:59;6.50;99.90
3614;DHT22;1821;50.936;6.854;2023-01-16T00:18:41;6.40;99.90
3614;DHT22;1821;50.936;6.854;2023-01-16T00:19:23;6.70;99.90
3614;DHT22;1821;50.936;6.854;2023-01-16T00:20:05;6.70;99.90
3614;DHT22;1821;50.936;6.854;2023-01-16T00:20:47;6.80;99.90
3614;DHT22;1821;50.936;6.854;2023-01-16T00:21:30;6.90;99.90
3614;DHT22;1821;50.936;6.854;2023-01-16T00:22:12;6.40;99.90
3614;DHT22;1821;50.936;6.854;2023-01-16T00:22:56;6.70;99.90
3614;DHT22;1821;50.936;6.854;2023-01-16T00:23:38;6.30;99.90
3614;DHT22;1821;50.936;6.854;2023-01-16T00:24:19;5.80;99.90
3614;DHT22;1821;50.936;6.854;2023-01-16T00:25:01;6.70;99.90
3614;DHT22;1821;50.936;6.854;2023-01-16T00:25:44;6.70;99.90
3614;DHT22;1821;50.936;6.854;2023-01-16T00:26:27;6.50;99.90
3614;DHT22;1821;50.936;6.854;2023-01-16T00:27:09;7.00;99.90
3614;DHT22;1821;50.936;6.854;2023-01-16T00:27:51;6.30;99.90
3614;DHT22;1821;50.936;6.854;2023-01-16T00:28:33;6.70;99.90
3614;DHT22;1821;50.936;6.854;2023-01-16T00:29:15;6.90;99.90
3614;DHT22;1821;50.936;6.854;2023-01-16T00:29:59;6.50;99.90
3614;DHT22;1821;50.936;6.854;2023-01-16T00:30:41;6.40;99.90
3614;DHT22;1821;50.936;6.854;2023-01-16T00:31:24;7.30;99.90
3614;DHT22;1821;50.936;6.854;2023-01-16T00:32:08;6.50;99.90
3614;DHT22;1821;50.936;6.854;2023-01-16T00:32:51;6.10;99.90
3614;DHT22;1821;50.936;6.854;2023-01-16T00:33:34;6.60;99.90
3614;DHT22;1821;50.936;6.854;2023-01-16T00:34:15;6.60;99.90
3614;DHT22;1821;50.936;6.854;2023-01-16T00:34:57;6.10;99.90
3614;DHT22;1821;50.936;6.854;2023-01-16T00:35:39;6.60;99.90
3614;DHT22;1821;50.936;6.854;2023-01-16T00:36:21;6.30;99.90
3614;DHT22;1821;50.936;6.854;2023-01-16T00:37:03;7.50;99.90
3614;DHT22;1821;50.936;6.854;2023-01-16T00:37:47;6.80;99.90
3614;DHT22;1821;50.936;6.854;2023-01-16T00:38:29;6.70;99.90
3614;DHT22;1821;50.936;6.854;2023-01-16T00:39:11;6.60;99.90
3614;DHT22;1821;50.936;6.854;2023-01-16T00:39:52;7.30;99.90
3614;DHT22;1821;50.936;6.854;2023-01-16T00:40:34;6.60;99.90
3614;DHT22;1821;50.936;6.854;2023-01-16T00:41:16;6.90;99.90
3614;DHT22;1821;50.936;6.854;2023-01-16T00:41:58;7.10;99.90
3614;DHT22;1821;50.936;6.854;2023-01-16T00:42:40;6.80;99.90
3614;DHT22;1821;50.936;6.854;2023-01-16T00:43:22;7.40;99.90
3614;DHT22;1821;50.936;6.854;2023-01-16T00:44:04;6.80;99.90
3614;DHT22;1821;50.936;6.854;2023-01-16T00:44:46;6.40;99.90
3614;DHT22;1821;50.936;6.854;2023-01-16T00:45:28;6.70;99.90
3614;DHT22;1821;50.936;6.854;2023-01-16T00:46:10;7.20;99.90
3614;DHT22;1821;50.936;6.854;2023-01-16T00:46:52;7.70;99.90
3614;DHT22;1821;50.936;6.854;2023-01-16T00:47:33;6.30;99.90
3614;DHT22;1821;50.936;6.854;2023-01-16T00:48:15;6.90;99.90
3614;DHT22;1821;50.936;6.854;2023-01-16T00:48:57;7.10;99.90
3614;DHT22;1821;50.936;6.854;2023-01-16T00:49:39;7.70;99.90
3614;DHT22;1821;50.936;6.854;2023-01-16T00:50:23;6.60;99.90
3614;DHT22;1821;50.936;6.854;2023-01-16T00:51:05;6.80;99.90
3614;DHT22;1821;50.936;6.854;2023-01-16T00:51:49;6.60;99.90
3614;DHT22;1821;50.936;6.854;2023-01-16T00:52:33;6.40;99.90
3614;DHT22;1821;50.936;6.854;2023-01-16T00:53:15;6.80;99.90
3614;DHT22;1821;50.936;6.854;2023-01-16T00:53:57;7.00;99.90
3614;DHT22;1821;50.936;6.854;2023-01-16T00:54:39;6.60;99.90
3614;DHT22;1821;50.936;6.854;2023-01-16T00:55:21;7.00;99.90
3614;DHT22;1821;50.936;6.854;2023-01-16T00:56:03;7.10;99.90
3614;DHT22;1821;50.936;6.854;2023-01-16T00:56:45;6.50;99.90
3614;DHT22;1821;50.936;6.854;2023-01-16T00:57:27;7.20;99.90
3614;DHT22;1821;50.936;6.854;2023-01-16T00:58:09;6.90;99.90
3614;DHT22;1821;50.936;6.854;2023-01-16T00:58:51;7.00;99.90
3614;DHT22;1821;50.936;6.854;2023-01-16T00:59:33;6.60;99.90
3614;DHT22;1821;50.936;6.854;2023-01-16T01:00:17;6.80;99.90
3614;DHT22;1821;50.936;6.854;2023-01-16T01:01:03;6.90;99.90
3614;DHT22;1821;50.936;6.854;2023-01-16T01:01:45;6.90;99.90
3614;DHT22;1821;50.936;6.854;2023-01-16T01:02:27;7.10;99.90
3614;DHT22;1821;50.936;6.854;2023-01-16T01:03:09;6.60;99.90
3614;DHT22;1821;50.936;6.854;2023-01-16T01:03:53;7.00;99.90
3614;DHT22;1821;50.936;6.854;2023-01-16T01:04:35;6.50;99.90
3614;DHT22;1821;50.936;6.854;2023-01-16T01:05:17;7.30;99.90
3614;DHT22;1821;50.936;6.854;2023-01-16T01:05:59;7.10;99.90
3614;DHT22;1821;50.936;6.854;2023-01-16T01:06:46;6.90;99.90
3614;DHT22;1821;50.936;6.854;2023-01-16T01:07:28;6.80;99.90
3614;DHT22;1821;50.936;6.854;2023-01-16T01:08:10;7.40;99.90
3614;DHT22;1821;50.936;6.854;2023-01-16T01:08:51;6.60;99.90
3614;DHT22;1821;50.936;6.854;2023-01-16T01:09:33;7.00;99.90
3614;DHT22;1821;50.936;6.854;2023-01-16T01:10:15;7.40;99.90
3614;DHT22;1821;50.936;6.854;2023-01-16T01:10:57;6.90;99.90
3614;DHT22;1821;50.936;6.854;2023-01-16T01:11:39;7.30;99.90
3614;DHT22;1821;50.936;6.854;2023-01-16T01:12:21;7.10;99.90
3614;DHT22;1821;50.936;6.854;2023-01-16T01:13:06;6.80;99.90
3614;DHT22;1821;50.936;6.854;2023-01-16T01:13:50;6.80;99.90
3614;DHT22;1821;50.936;6.854;2023-01-16T01:14:32;7.20;99.90
3614;DHT22;1821;50.936;6.854;2023-01-16T01:15:14;7.50;99.90
3614;DHT22;1821;50.936;6.854;2023-01-16T01:15:58;7.60;99.90
3614;DHT22;1821;50.936;6.854;2023-01-16T01:16:40;7.30;99.90
3614;DHT22;1821;50.936;6.854;2023-01-16T01:17:22;6.90;99.90
3614;DHT22;1821;50.936;6.854;2023-01-16T01:18:04;6.90;99.90
3614;DHT22;1821;50.936;6.854;2023-01-16T01:18:46;6.80;99.90
3614;DHT22;1821;50.936;6.854;2023-01-16T01:19:28;6.60;99.90
3614;DHT22;1821;50.936;6.854;2023-01-16T01:20:10;6.70;99.90
3614;DHT22;1821;50.936;6.854;2023-01-16T01:20:52;6.70;99.90
3614;DHT22;1821;50.936;6.854;2023-01-16T01:21:34;7.90;99.90
3614;DHT22;1821;50.936;6.854;2023-01-16T01:22:18;6.50;99.90
3614;DHT22;1821;50.936;6.854;2023-01-16T01:23:00;6.80;99.90
3614;DHT22;1821;50.936;6.854;2023-01-16T01:23:42;7.10;99.90
3614;DHT22;1821;50.936;6.854;2023-01-16T01:24:23;6.80;99.90
3614;DHT22;1821;50.936;6.854;2023-01-16T01:25:05;6.70;99.90
3614;DHT22;1821;50.936;6.854;2023-01-16T01:25:48;6.50;99.90
3614;DHT22;1821;50.936;6.854;2023-01-16T01:26:30;6.70;99.90
3614;DHT22;1821;50.936;6.854;2023-01-16T01:27:12;6.60;99.90
3614;DHT22;1821;50.936;6.854;2023-01-16T01:27:54;6.60;99.90
3614;DHT22;1821;50.936;6.854;2023-01-16T01:28:38;6.30;99.90
3614;DHT22;1821;50.936;6.854;2023-01-16T01:29:20;7.40;99.90
3614;DHT22;1821;50.936;6.854;2023-01-16T01:30:02;6.60;99.90
3614;DHT22;1821;50.936;6.854;2023-01-16T01:30:44;6.40;99.90
3614;DHT22;1821;50.936;6.854;2023-01-16T01:31:28;7.50;99.90
3614;DHT22;1821;50.936;6.854;2023-01-16T01:32:10;7.30;99.90
3614;DHT22;1821;50.936;6.854;2023-01-16T01:32:52;6.80;99.90
3614;DHT22;1821;50.936;6.854;2023-01-16T01:33:34;6.50;99.90
3614;DHT22;1821;50.936;6.854;2023-01-16T01:34:16;6.90;99.90
3614;DHT22;1821;50.936;6.854;2023-01-16T01:34:58;7.50;99.90
3614;DHT22;1821;50.936;6.854;2023-01-16T01:35:40;6.70;99.90
3614;DHT22;1821;50.936;6.854;2023-01-16T01:36:22;6.90;99.90
3614;DHT22;1821;50.936;6.854;2023-01-16T01:37:05;6.80;99.90
3614;DHT22;1821;50.936;6.854;2023-01-16T01:37:47;6.80;99.90
3614;DHT22;1821;50.936;6.854;2023-01-16T01:38:29;6.80;99.90
3614;DHT22;1821;50.936;6.854;2023-01-16T01:39:14;6.60;99.90
3614;DHT22;1821;50.936;6.854;2023-01-16T01:39:56;6.80;99.90
3614;DHT22;1821;50.936;6.854;2023-01-16T01:40:38;6.90;99.90
3614;DHT22;1821;50.936;6.854;2023-01-16T01:41:20;6.40;99.90
3614;DHT22;1821;50.936;6.854;2023-01-16T01:42:02;6.70;99.90
3614;DHT22;1821;50.936;6.854;2023-01-16T01:43:12;6.60;99.90
3614;DHT22;1821;50.936;6.854;2023-01-16T01:43:55;6.80;99.90
3614;DHT22;1821;50.936;6.854;2023-01-16T01:45:36;6.70;99.90
3614;DHT22;1821;50.936;6.854;2023-01-16T01:47:02;7.00;99.90
3614;DHT22;1821;50.936;6.854;2023-01-16T01:48:00;6.50;99.90
3614;DHT22;1821;50.936;6.854;2023-01-16T01:48:44;7.40;99.90
3614;DHT22;1821;50.936;6.854;2023-01-16T01:49:29;7.10;99.90
3614;DHT22;1821;50.936;6.854;2023-01-16T01:50:19;6.90;99.90
3614;DHT22;1821;50.936;6.854;2023-01-16T01:51:13;7.10;99.90
3614;DHT22;1821;50.936;6.854;2023-01-16T01:51:59;7.10;99.90
3614;DHT22;1821;50.936;6.854;2023-01-16T01:52:41;6.50;99.90
3614;DHT22;1821;50.936;6.854;2023-01-16T01:53:36;6.40;99.90
3614;DHT22;1821;50.936;6.854;2023-01-16T01:54:24;6.50;99.90
3614;DHT22;1821;50.936;6.854;2023-01-16T01:55:10;6.70;99.90
3614;DHT22;1821;50.936;6.854;2023-01-16T01:55:54;6.80;99.90
3614;DHT22;1821;50.936;6.854;2023-01-16T01:56:48;7.00;99.90
3614;DHT22;1821;50.936;6.854;2023-01-16T01:57:37;7.20;99.90
3614;DHT22;1821;50.936;6.854;2023-01-16T01:58:22;6.80;99.90
3614;DHT22;1821;50.936;6.854;2023-01-16T01:59:12;6.40;99.90
3614;DHT22;1821;50.936;6.854;2023-01-16T02:00:10;6.60;99.90
3614;DHT22;1821;50.936;6.854;2023-01-16T02:00:56;6.50;99.90
3614;DHT22;1821;50.936;6.854;2023-01-16T02:01:40;6.40;99.90
3614;DHT22;1821;50.936;6.854;2023-01-16T02:02:26;6.40;99.90
3614;DHT22;1821;50.936;6.854;2023-01-16T02:03:15;6.90;99.90
3614;DHT22;1821;50.936;6.854;2023-01-16T02:04:03;6.60;99.90
3614;DHT22;1821;50.936;6.854;2023-01-16T02:04:46;6.30;99.90
3614;DHT22;1821;50.936;6.854;2023-01-16T02:05:34;6.30;99.90
3614;DHT22;1821;50.936;6.854;2023-01-16T02:06:20;6.20;99.90
3614;DHT22;1821;50.936;6.854;2023-01-16T02:07:06;6.10;99.90
3614;DHT22;1821;50.936;6.854;2023-01-16T02:07:52;6.40;99.90
3614;DHT22;1821;50.936;6.854;2023-01-16T02:08:36;6.40;99.90
3614;DHT22;1821;50.936;6.854;2023-01-16T02:09:18;7.10;99.90
3614;DHT22;1821;50.936;6.854;2023-01-16T02:10:34;6.00;99.90
3614;DHT22;1821;50.936;6.854;2023-01-16T02:11:33;6.30;99.90
3614;DHT22;1821;50.936;6.854;2023-01-16T02:12:17;5.90;99.90
3614;DHT22;1821;50.936;6.854;2023-01-16T02:13:00;6.30;99.90
3614;DHT22;1821;50.936;6.854;2023-01-16T02:13:42;7.10;99.90
3614;DHT22;1821;50.936;6.854;2023-01-16T02:14:27;6.20;99.90
3614;DHT22;1821;50.936;6.854;2023-01-16T02:15:09;5.80;99.90
3614;DHT22;1821;50.936;6.854;2023-01-16T02:15:55;5.80;99.90
3614;DHT22;1821;50.936;6.854;2023-01-16T02:18:16;6.10;99.90
3614;DHT22;1821;50.936;6.854;2023-01-16T02:20:18;5.90;99.90
3614;DHT22;1821;50.936;6.854;2023-01-16T02:21:56;6.00;99.90
3614;DHT22;1821;50.936;6.854;2023-01-16T02:23:04;5.90;99.90
3614;DHT22;1821;50.936;6.854;2023-01-16T02:24:02;5.70;99.90
3614;DHT22;1821;50.936;6.854;2023-01-16T02:24:58;6.10;99.90
3614;DHT22;1821;50.936;6.854;2023-01-16T02:26:04;5.90;99.90
3614;DHT22;1821;50.936;6.854;2023-01-16T02:30:05;6.10;99.90
3614;DHT22;1821;50.936;6.854;2023-01-16T02:35:13;5.80;99.90
3614;DHT22;1821;50.936;6.854;2023-01-16T02:37:51;5.60;99.90
3614;DHT22;1821;50.936;6.854;2023-01-16T02:39:55;5.80;99.90
3614;DHT22;1821;50.936;6.854;2023-01-16T02:40:50;5.80;99.90
3614;DHT22;1821;50.936;6.854;2023-01-16T02:42:33;5.60;99.90
3614;DHT22;1821;50.936;6.854;2023-01-16T02:43:46;5.60;99.90
3614;DHT22;1821;50.936;6.854;2023-01-16T02:47:20;5.40;99.90
3614;DHT22;1821;50.936;6.854;2023-01-16T02:48:28;5.70;99.90
3614;DHT22;1821;50.936;6.854;2023-01-16T02:50:23;5.80;99.90
3614;DHT22;1821;50.936;6.854;2023-01-16T02:51:45;6.00;99.90
3614;DHT22;1821;50.936;6.854;2023-01-16T02:53:30;5.90;99.90
3614;DHT22;1821;50.936;6.854;2023-01-16T02:54:24;5.90;99.90
3614;DHT22;1821;50.936;6.854;2023-01-16T02:55:14;6.00;99.90
3614;DHT22;1821;50.936;6.854;2023-01-16T02:56:06;6.80;99.90
3614;DHT22;1821;50.936;6.854;2023-01-16T02:57:01;5.70;99.90
3614;DHT22;1821;50.936;6.854;2023-01-16T02:57:47;5.70;99.90
3614;DHT22;1821;50.936;6.854;2023-01-16T02:58:32;6.10;99.90
3614;DHT22;1821;50.936;6.854;2023-01-16T02:59:15;5.60;99.90
3614;DHT22;1821;50.936;6.854;2023-01-16T02:59:57;5.90;99.90
3614;DHT22;1821;50.936;6.854;2023-01-16T03:00:52;5.80;99.90
3614;DHT22;1821;50.936;6.854;2023-01-16T03:01:35;6.70;99.90
3614;DHT22;1821;50.936;6.854;2023-01-16T03:02:18;6.00;99.90
3614;DHT22;1821;50.936;6.854;2023-01-16T03:03:00;6.00;99.90
3614;DHT22;1821;50.936;6.854;2023-01-16T03:05:18;5.90;99.90
3614;DHT22;1821;50.936;6.854;2023-01-16T03:06:10;5.90;99.90
3614;DHT22;1821;50.936;6.854;2023-01-16T03:11:24;5.70;99.90
3614;DHT22;1821;50.936;6.854;2023-01-16T03:15:25;5.90;99.90
3614;DHT22;1821;50.936;6.854;2023-01-16T03:18:10;5.80;99.90
3614;DHT22;1821;50.936;6.854;2023-01-16T03:20:15;5.70;99.90
3614;DHT22;1821;50.936;6.854;2023-01-16T03:23:23;5.70;99.90
3614;DHT22;1821;50.936;6.854;2023-01-16T03:24:31;5.70;99.90
3614;DHT22;1821;50.936;6.854;2023-01-16T03:25:38;5.90;99.90
3614;DHT22;1821;50.936;6.854;2023-01-16T03:26:53;5.90;99.90
3614;DHT22;1821;50.936;6.854;2023-01-16T03:32:27;5.60;99.90
3614;DHT22;1821;50.936;6.854;2023-01-16T03:35:06;5.50;99.90
3614;DHT22;1821;50.936;6.854;2023-01-16T03:35:54;5.40;99.90
3614;DHT22;1821;50.936;6.854;2023-01-16T03:36:52;5.70;99.90
3614;DHT22;1821;50.936;6.854;2023-01-16T03:37:57;6.40;99.90
3614;DHT22;1821;50.936;6.854;2023-01-16T03:38:40;5.80;99.90
3614;DHT22;1821;50.936;6.854;2023-01-16T03:39:30;7.10;99.90
3614;DHT22;1821;50.936;6.854;2023-01-16T03:40:20;6.40;99.90
3614;DHT22;1821;50.936;6.854;2023-01-16T03:41:05;5.40;99.90
3614;DHT22;1821;50.936;6.854;2023-01-16T03:41:51;6.50;99.90
3614;DHT22;1821;50.936;6.854;2023-01-16T03:43:11;5.30;99.90
3614;DHT22;1821;50.936;6.854;2023-01-16T03:43:45;5.40;99.90
3614;DHT22;1821;50.936;6.854;2023-01-16T03:44:37;7.10;99.90
3614;DHT22;1821;50.936;6.854;2023-01-16T03:45:28;5.30;99.90
3614;DHT22;1821;50.936;6.854;2023-01-16T03:46:16;5.80;99.90
3614;DHT22;1821;50.936;6.854;2023-01-16T03:47:00;6.50;99.90
3614;DHT22;1821;50.936;6.854;2023-01-16T03:47:52;6.40;99.90
3614;DHT22;1821;50.936;6.854;2023-01-16T03:49:40;5.80;99.90
3614;DHT22;1821;50.936;6.854;2023-01-16T03:50:26;5.70;99.90
3614;DHT22;1821;50.936;6.854;2023-01-16T03:51:12;5.90;99.90
3614;DHT22;1821;50.936;6.854;2023-01-16T03:51:58;6.50;99.90
3614;DHT22;1821;50.936;6.854;2023-01-16T03:52:47;5.80;99.90
3614;DHT22;1821;50.936;6.854;2023-01-16T03:53:42;5.80;99.90
3614;DHT22;1821;50.936;6.854;2023-01-16T03:55:38;5.90;99.90
3614;DHT22;1821;50.936;6.854;2023-01-16T03:57:18;5.60;99.90
3614;DHT22;1821;50.936;6.854;2023-01-16T03:57:50;5.80;99.90
3614;DHT22;1821;50.936;6.854;2023-01-16T03:58:38;6.10;99.90
3614;DHT22;1821;50.936;6.854;2023-01-16T03:59:21;6.10;99.90
3614;DHT22;1821;50.936;6.854;2023-01-16T04:00:04;5.70;99.90
3614;DHT22;1821;50.936;6.854;2023-01-16T04:01:56;5.90;99.90
3614;DHT22;1821;50.936;6.854;2023-01-16T04:02:53;5.80;99.90
3614;DHT22;1821;50.936;6.854;2023-01-16T04:04:44;5.50;99.90
3614;DHT22;1821;50.936;6.854;2023-01-16T04:05:46;5.10;99.90
3614;DHT22;1821;50.936;6.854;2023-01-16T04:07:30;5.90;99.90
3614;DHT22;1821;50.936;6.854;2023-01-16T04:08:19;5.60;99.90
3614;DHT22;1821;50.936;6.854;2023-01-16T04:09:10;6.40;99.90
3614;DHT22;1821;50.936;6.854;2023-01-16T04:09:59;5.40;99.90
3614;DHT22;1821;50.936;6.854;2023-01-16T04:10:45;6.60;99.90
3614;DHT22;1821;50.936;6.854;2023-01-16T04:11:28;6.10;99.90
3614;DHT22;1821;50.936;6.854;2023-01-16T04:12:12;7.10;99.90
3614;DHT22;1821;50.936;6.854;2023-01-16T04:13:05;6.80;99.90
3614;DHT22;1821;50.936;6.854;2023-01-16T04:13:49;5.80;99.90
3614;DHT22;1821;50.936;6.854;2023-01-16T04:14:33;6.60;99.90
3614;DHT22;1821;50.936;6.854;2023-01-16T04:15:16;6.70;99.90
3614;DHT22;1821;50.936;6.854;2023-01-16T04:16:00;5.30;99.90
3614;DHT22;1821;50.936;6.854;2023-01-16T04:16:43;5.50;99.90
3614;DHT22;1821;50.936;6.854;2023-01-16T04:17:26;5.60;99.90
3614;DHT22;1821;50.936;6.854;2023-01-16T04:18:08;6.00;99.90
3614;DHT22;1821;50.936;6.854;2023-01-16T04:18:53;5.60;99.90
3614;DHT22;1821;50.936;6.854;2023-01-16T04:20:17;6.20;99.90
3614;DHT22;1821;50.936;6.854;2023-01-16T04:21:04;6.00;99.90
3614;DHT22;1821;50.936;6.854;2023-01-16T04:21:49;5.60;99.90
3614;DHT22;1821;50.936;6.854;2023-01-16T04:22:31;5.70;99.90
3614;DHT22;1821;50.936;6.854;2023-01-16T04:23:13;5.60;99.90
3614;DHT22;1821;50.936;6.854;2023-01-16T04:23:57;6.20;99.90
3614;DHT22;1821;50.936;6.854;2023-01-16T04:24:40;5.60;99.90
3614;DHT22;1821;50.936;6.854;2023-01-16T04:25:23;5.90;99.90
3614;DHT22;1821;50.936;6.854;2023-01-16T04:26:05;5.60;99.90
3614;DHT22;1821;50.936;6.854;2023-01-16T04:26:46;5.70;99.90
3614;DHT22;1821;50.936;6.854;2023-01-16T04:27:29;5.70;99.90
3614;DHT22;1821;50.936;6.854;2023-01-16T04:28:11;5.80;99.90
3614;DHT22;1821;50.936;6.854;2023-01-16T04:28:52;5.50;99.90
3614;DHT22;1821;50.936;6.854;2023-01-16T04:29:36;6.20;99.90
3614;DHT22;1821;50.936;6.854;2023-01-16T04:30:18;6.30;99.90
3614;DHT22;1821;50.936;6.854;2023-01-16T04:31:00;5.60;99.90
3614;DHT22;1821;50.936;6.854;2023-01-16T04:31:42;6.00;99.90
3614;DHT22;1821;50.936;6.854;2023-01-16T04:32:24;5.70;99.90
3614;DHT22;1821;50.936;6.854;2023-01-16T04:33:06;5.40;99.90
3614;DHT22;1821;50.936;6.854;2023-01-16T04:33:48;5.80;99.90
3614;DHT22;1821;50.936;6.854;2023-01-16T04:34:29;5.80;99.90
3614;DHT22;1821;50.936;6.854;2023-01-16T04:35:14;5.90;99.90
3614;DHT22;1821;50.936;6.854;2023-01-16T04:35:55;5.60;99.90
3614;DHT22;1821;50.936;6.854;2023-01-16T04:36:37;5.80;99.90
3614;DHT22;1821;50.936;6.854;2023-01-16T04:37:19;5.30;99.90
3614;DHT22;1821;50.936;6.854;2023-01-16T04:38:01;5.70;99.90
3614;DHT22;1821;50.936;6.854;2023-01-16T04:38:43;5.50;99.90
3614;DHT22;1821;50.936;6.854;2023-01-16T04:39:25;6.00;99.90
3614;DHT22;1821;50.936;6.854;2023-01-16T04:40:09;6.20;99.90
3614;DHT22;1821;50.936;6.854;2023-01-16T04:40:53;5.50;99.90
3614;DHT22;1821;50.936;6.854;2023-01-16T04:41:35;5.70;99.90
3614;DHT22;1821;50.936;6.854;2023-01-16T04:42:17;6.00;99.90
3614;DHT22;1821;50.936;6.854;2023-01-16T04:42:59;5.80;99.90
3614;DHT22;1821;50.936;6.854;2023-01-16T04:43:41;6.10;99.90
3614;DHT22;1821;50.936;6.854;2023-01-16T04:44:23;5.40;99.90
3614;DHT22;1821;50.936;6.854;2023-01-16T04:45:06;5.80;99.90
3614;DHT22;1821;50.936;6.854;2023-01-16T04:45:48;5.50;99.90
3614;DHT22;1821;50.936;6.854;2023-01-16T04:46:30;5.80;99.90
3614;DHT22;1821;50.936;6.854;2023-01-16T04:47:12;5.70;99.90
3614;DHT22;1821;50.936;6.854;2023-01-16T04:47:54;5.40;99.90
3614;DHT22;1821;50.936;6.854;2023-01-16T04:48:35;5.50;99.90
3614;DHT22;1821;50.936;6.854;2023-01-16T04:49:17;5.50;99.90
3614;DHT22;1821;50.936;6.854;2023-01-16T04:49:59;5.60;99.90
3614;DHT22;1821;50.936;6.854;2023-01-16T04:51:23;6.00;99.90
3614;DHT22;1821;50.936;6.854;2023-01-16T04:52:05;5.70;99.90
3614;DHT22;1821;50.936;6.854;2023-01-16T04:52:47;5.70;99.90
3614;DHT22;1821;50.936;6.854;2023-01-16T04:53:29;6.30;99.90
3614;DHT22;1821;50.936;6.854;2023-01-16T04:54:14;5.60;99.90
3614;DHT22;1821;50.936;6.854;2023-01-16T04:54:56;5.70;99.90
3614;DHT22;1821;50.936;6.854;2023-01-16T04:55:38;5.80;99.90
3614;DHT22;1821;50.936;6.854;2023-01-16T04:56:20;5.60;99.90
3614;DHT22;1821;50.936;6.854;2023-01-16T04:57:02;5.60;99.90
3614;DHT22;1821;50.936;6.854;2023-01-16T04:57:44;5.60;99.90
3614;DHT22;1821;50.936;6.854;2023-01-16T04:58:26;7.30;99.90
3614;DHT22;1821;50.936;6.854;2023-01-16T04:59:09;5.80;99.90
3614;DHT22;1821;50.936;6.854;2023-01-16T04:59:51;6.60;99.90
3614;DHT22;1821;50.936;6.854;2023-01-16T05:00:33;6.10;99.90
3614;DHT22;1821;50.936;6.854;2023-01-16T05:01:15;5.80;99.90
3614;DHT22;1821;50.936;6.854;2023-01-16T05:01:59;5.60;99.90
3614;DHT22;1821;50.936;6.854;2023-01-16T05:02:42;5.60;99.90
3614;DHT22;1821;50.936;6.854;2023-01-16T05:03:23;6.10;99.90
3614;DHT22;1821;50.936;6.854;2023-01-16T05:04:07;5.90;99.90
3614;DHT22;1821;50.936;6.854;2023-01-16T05:04:49;7.20;99.90
3614;DHT22;1821;50.936;6.854;2023-01-16T05:05:31;6.10;99.90
3614;DHT22;1821;50.936;6.854;2023-01-16T05:06:13;6.10;99.90
3614;DHT22;1821;50.936;6.854;2023-01-16T05:06:56;6.40;99.90
3614;DHT22;1821;50.936;6.854;2023-01-16T05:07:38;6.40;99.90
3614;DHT22;1821;50.936;6.854;2023-01-16T05:08:19;5.70;99.90
3614;DHT22;1821;50.936;6.854;2023-01-16T05:09:03;5.90;99.90
3614;DHT22;1821;50.936;6.854;2023-01-16T05:09:45;6.00;99.90
3614;DHT22;1821;50.936;6.854;2023-01-16T05:10:27;6.20;99.90
3614;DHT22;1821;50.936;6.854;2023-01-16T05:11:09;5.70;99.90
3614;DHT22;1821;50.936;6.854;2023-01-16T05:11:51;5.90;99.90
3614;DHT22;1821;50.936;6.854;2023-01-16T05:12:33;6.20;99.90
3614;DHT22;1821;50.936;6.854;2023-01-16T05:13:14;6.00;99.90
3614;DHT22;1821;50.936;6.854;2023-01-16T05:13:57;6.00;99.90
3614;DHT22;1821;50.936;6.854;2023-01-16T05:14:39;6.00;99.90
3614;DHT22;1821;50.936;6.854;2023-01-16T05:15:21;6.00;99.90
3614;DHT22;1821;50.936;6.854;2023-01-16T05:16:03;6.20;99.90
3614;DHT22;1821;50.936;6.854;2023-01-16T05:16:48;6.20;99.90
3614;DHT22;1821;50.936;6.854;2023-01-16T05:17:30;6.20;99.90
3614;DHT22;1821;50.936;6.854;2023-01-16T05:18:12;5.60;99.90
3614;DHT22;1821;50.936;6.854;2023-01-16T05:18:54;5.80;99.90
3614;DHT22;1821;50.936;6.854;2023-01-16T05:19:36;6.10;99.90
3614;DHT22;1821;50.936;6.854;2023-01-16T05:20:18;5.90;99.90
3614;DHT22;1821;50.936;6.854;2023-01-16T05:21:00;6.00;99.90
3614;DHT22;1821;50.936;6.854;2023-01-16T05:21:43;5.80;99.90
3614;DHT22;1821;50.936;6.854;2023-01-16T05:22:24;5.90;99.90
3614;DHT22;1821;50.936;6.854;2023-01-16T05:23:06;6.10;99.90
3614;DHT22;1821;50.936;6.854;2023-01-16T05:23:52;5.80;99.90
3614;DHT22;1821;50.936;6.854;2023-01-16T05:24:34;6.20;99.90
3614;DHT22;1821;50.936;6.854;2023-01-16T05:25:16;6.00;99.90
3614;DHT22;1821;50.936;6.854;2023-01-16T05:25:57;5.90;99.90
3614;DHT22;1821;50.936;6.854;2023-01-16T05:26:39;6.00;99.90
3614;DHT22;1821;50.936;6.854;2023-01-16T05:27:21;6.20;99.90
3614;DHT22;1821;50.936;6.854;2023-01-16T05:28:03;6.10;99.90
3614;DHT22;1821;50.936;6.854;2023-01-16T05:28:45;6.10;99.90
3614;DHT22;1821;50.936;6.854;2023-01-16T05:29:27;7.30;99.90
3614;DHT22;1821;50.936;6.854;2023-01-16T05:30:11;6.10;99.90
3614;DHT22;1821;50.936;6.854;2023-01-16T05:30:54;6.10;99.90
3614;DHT22;1821;50.936;6.854;2023-01-16T05:31:39;6.00;99.90
3614;DHT22;1821;50.936;6.854;2023-01-16T05:32:20;6.10;99.90
3614;DHT22;1821;50.936;6.854;2023-01-16T05:33:02;6.10;99.90
3614;DHT22;1821;50.936;6.854;2023-01-16T05:33:48;6.20;99.90
3614;DHT22;1821;50.936;6.854;2023-01-16T05:34:30;5.90;99.90
3614;DHT22;1821;50.936;6.854;2023-01-16T05:35:13;7.10;99.90
3614;DHT22;1821;50.936;6.854;2023-01-16T05:35:55;6.50;99.90
3614;DHT22;1821;50.936;6.854;2023-01-16T05:36:37;6.70;99.90
3614;DHT22;1821;50.936;6.854;2023-01-16T05:37:21;6.20;99.90
3614;DHT22;1821;50.936;6.854;2023-01-16T05:38:03;8.10;99.90
3614;DHT22;1821;50.936;6.854;2023-01-16T05:38:45;6.00;99.90
3614;DHT22;1821;50.936;6.854;2023-01-16T05:39:27;6.20;99.90
3614;DHT22;1821;50.936;6.854;2023-01-16T05:40:10;6.10;99.90
3614;DHT22;1821;50.936;6.854;2023-01-16T05:40:52;6.30;99.90
3614;DHT22;1821;50.936;6.854;2023-01-16T05:41:34;6.10;99.90
3614;DHT22;1821;50.936;6.854;2023-01-16T05:42:16;6.40;99.90
3614;DHT22;1821;50.936;6.854;2023-01-16T05:43:06;6.00;99.90
3614;DHT22;1821;50.936;6.854;2023-01-16T05:43:48;6.40;99.90
3614;DHT22;1821;50.936;6.854;2023-01-16T05:44:29;6.20;99.90
3614;DHT22;1821;50.936;6.854;2023-01-16T05:45:11;6.20;99.90
3614;DHT22;1821;50.936;6.854;2023-01-16T05:45:53;6.00;99.90
3614;DHT22;1821;50.936;6.854;2023-01-16T05:46:35;5.90;99.90
3614;DHT22;1821;50.936;6.854;2023-01-16T05:47:18;6.40;99.90